Gondar, Ethiopia
Current Conditions -  °F | °C
As of 11:00 PM on Friday 24 Oct 2014 (Local Time) from HAAB Reporting Station
Few Clouds Few Clouds  
Wind Chill: 59°   Ceiling: Unl
Heat Index: 59°   Visibility: 6mi
Dew Point: 46°   Wind: 7mph
Humidity: 63%   Direction: 360°N
Pressure: 30.39"   Gusts: NA
Location:  12.61°N, 37.46°E
Report Text: HAAB 242000Z 36006KT 9999 FEW028 15/08 Q1029
Loading
Personal Weather Stations






























Interactive Weather Map
Tropical Storm Tracking
New forecast layout! Learn more

10-Day Weather Forecast

Advertisements
Track Severe Weather on mobile